Time;durP1;ratioP1;P1;durP2;ratioP2;P2;SDS_P1;SDS_P2;PMS_P1;PMS_P2;Temp;Humidity;BMP_temperature;BMP_pressure;BME280_temperature;BME280_humidity;BME280_pressure;Samples;Min_cycle;Max_cycle;Signal;HPM_P1;HPM_P2
2021/04/23 00:03:11;;;;;;;;;;;4.20;99.90;;;;;;10408830;28;20382;-69
2021/04/23 00:08:13;;;;;;;;;;;4.10;99.90;;;;;;10423774;28;19935;-69
2021/04/23 00:13:15;;;;;;;;;;;3.90;99.90;;;;;;10408313;28;19968;-69
2021/04/23 00:18:16;;;;;;;;;;;3.90;99.90;;;;;;10441521;28;20037;-69
2021/04/23 00:23:19;;;;;;;;;;;3.80;99.90;;;;;;10417340;28;20640;-69
2021/04/23 00:28:21;;;;;;;;;;;3.70;99.90;;;;;;10409313;28;20370;-69
2021/04/23 00:33:24;;;;;;;;;;;3.60;99.90;;;;;;10428740;28;19925;-69
2021/04/23 00:38:26;;;;;;;;;;;3.60;99.90;;;;;;10407926;28;19972;-69
2021/04/23 00:43:28;;;;;;;;;;;3.60;99.90;;;;;;10434906;28;19964;-69
2021/04/23 00:48:34;;;;;;;;;;;3.50;99.90;;;;;;10411224;28;19929;-68
2021/04/23 00:53:37;;;;;;;;;;;3.40;99.90;;;;;;10406283;28;20003;-69
2021/04/23 00:58:39;;;;;;;;;;;3.30;99.90;;;;;;10405766;28;19925;-69
2021/04/23 01:03:42;;;;;;;;;;;3.20;99.90;;;;;;10405994;28;19925;-69
2021/04/23 01:08:44;;;;;;;;;;;3.20;99.90;;;;;;10406646;28;20016;-69
2021/04/23 01:13:46;;;;;;;;;;;3.20;99.90;;;;;;10406805;28;19925;-68
2021/04/23 01:18:48;;;;;;;;;;;3.20;99.90;;;;;;10406511;28;20369;-69
2021/04/23 01:23:52;;;;;;;;;;;3.10;99.90;;;;;;10406652;28;20347;-69
2021/04/23 01:28:54;;;;;;;;;;;3.10;99.90;;;;;;10405708;28;20020;-69
2021/04/23 01:33:58;;;;;;;;;;;3.00;99.90;;;;;;10406969;28;20024;-68
2021/04/23 01:38:59;;;;;;;;;;;2.90;99.90;;;;;;10406295;28;20020;-69
2021/04/23 01:44:02;;;;;;;;;;;2.90;99.90;;;;;;10405949;28;20006;-69
2021/04/23 01:49:14;;;;;;;;;;;2.80;99.90;;;;;;10404189;28;20008;-69
2021/04/23 01:54:15;;;;;;;;;;;2.70;99.90;;;;;;10406089;28;20028;-68
2021/04/23 01:59:17;;;;;;;;;;;2.80;99.90;;;;;;10405214;28;19937;-70
2021/04/23 02:04:19;;;;;;;;;;;2.70;99.90;;;;;;10411037;28;19929;-69
2021/04/23 02:09:21;;;;;;;;;;;2.60;99.90;;;;;;10413004;28;19925;-69
2021/04/23 02:14:23;;;;;;;;;;;2.50;99.90;;;;;;10410914;28;19956;-69
2021/04/23 02:19:25;;;;;;;;;;;2.50;99.90;;;;;;10412405;28;19925;-69
2021/04/23 02:24:26;;;;;;;;;;;2.50;99.90;;;;;;10412284;28;20460;-69
2021/04/23 02:29:28;;;;;;;;;;;2.50;99.90;;;;;;10410711;28;19967;-69
2021/04/23 02:34:29;;;;;;;;;;;2.40;99.90;;;;;;10412166;28;19964;-69
2021/04/23 02:39:30;;;;;;;;;;;2.30;99.90;;;;;;10412151;28;19929;-69
2021/04/23 02:44:32;;;;;;;;;;;2.30;99.90;;;;;;10411417;28;19978;-69
2021/04/23 02:49:33;;;;;;;;;;;2.30;99.90;;;;;;10411173;28;20031;-69
2021/04/23 02:54:34;;;;;;;;;;;2.20;99.90;;;;;;10411739;28;19969;-70
2021/04/23 02:59:36;;;;;;;;;;;2.10;99.90;;;;;;10411545;28;19983;-69
2021/04/23 03:04:37;;;;;;;;;;;2.00;99.90;;;;;;10416485;28;19937;-69
2021/04/23 03:09:38;;;;;;;;;;;2.00;99.90;;;;;;10412950;28;20467;-69
2021/04/23 03:14:40;;;;;;;;;;;2.00;99.90;;;;;;10410588;28;20293;-69
2021/04/23 03:19:41;;;;;;;;;;;1.90;99.90;;;;;;10412129;28;20023;-69
2021/04/23 03:24:42;;;;;;;;;;;1.80;99.90;;;;;;10412063;28;20047;-69
2021/04/23 03:29:43;;;;;;;;;;;1.80;99.90;;;;;;10411156;28;19929;-69
2021/04/23 03:34:45;;;;;;;;;;;1.70;99.90;;;;;;10411730;28;20316;-69
2021/04/23 03:39:46;;;;;;;;;;;1.70;99.90;;;;;;10411031;28;20161;-69
2021/04/23 03:44:47;;;;;;;;;;;1.60;99.90;;;;;;10410162;28;20360;-69
2021/04/23 03:49:49;;;;;;;;;;;1.50;99.90;;;;;;10410710;28;19972;-69
2021/04/23 03:54:50;;;;;;;;;;;1.50;99.90;;;;;;10410592;28;20074;-69
2021/04/23 03:59:51;;;;;;;;;;;1.50;99.90;;;;;;10409528;28;20023;-68
2021/04/23 04:04:53;;;;;;;;;;;1.50;99.90;;;;;;10408970;28;20420;-69
2021/04/23 04:09:55;;;;;;;;;;;1.50;99.90;;;;;;10409865;28;19971;-69
2021/04/23 04:14:56;;;;;;;;;;;1.50;99.90;;;;;;10406143;28;20379;-69
2021/04/23 04:19:59;;;;;;;;;;;1.50;99.90;;;;;;10408441;28;19972;-68
2021/04/23 04:25:00;;;;;;;;;;;1.40;99.90;;;;;;10397910;28;20147;-69
2021/04/23 04:30:02;;;;;;;;;;;1.40;99.90;;;;;;10403795;28;20028;-69
2021/04/23 04:35:03;;;;;;;;;;;1.50;99.90;;;;;;10447755;28;19995;-69
2021/04/23 04:40:06;;;;;;;;;;;1.50;99.90;;;;;;10409268;28;20023;-69
2021/04/23 04:45:09;;;;;;;;;;;1.60;99.90;;;;;;10407914;28;19979;-69
2021/04/23 04:50:13;;;;;;;;;;;1.60;99.90;;;;;;10408992;28;19977;-69
2021/04/23 04:55:15;;;;;;;;;;;1.70;99.90;;;;;;10408708;28;20425;-69
2021/04/23 05:00:16;;;;;;;;;;;2.10;99.90;;;;;;10406921;28;20432;-70
2021/04/23 05:05:17;;;;;;;;;;;2.40;99.90;;;;;;10408247;28;20366;-70
2021/04/23 05:10:19;;;;;;;;;;;2.50;99.90;;;;;;10407514;28;19932;-70
2021/04/23 05:15:20;;;;;;;;;;;2.60;99.90;;;;;;10408526;28;20383;-69
2021/04/23 05:20:22;;;;;;;;;;;2.80;99.90;;;;;;10407135;28;20020;-70
2021/04/23 05:25:24;;;;;;;;;;;2.90;99.90;;;;;;10406893;28;19928;-70
2021/04/23 05:30:26;;;;;;;;;;;3.00;99.90;;;;;;10406916;28;20411;-70
2021/04/23 05:35:28;;;;;;;;;;;2.90;99.90;;;;;;10406870;28;19929;-70
2021/04/23 05:40:29;;;;;;;;;;;2.90;99.90;;;;;;10406574;28;20019;-70
2021/04/23 05:45:31;;;;;;;;;;;2.90;99.90;;;;;;10400698;28;20037;-70
2021/04/23 05:50:32;;;;;;;;;;;3.00;99.90;;;;;;10394134;28;19929;-70
2021/04/23 05:55:34;;;;;;;;;;;3.30;99.90;;;;;;10389558;28;20024;-70
2021/04/23 06:00:40;;;;;;;;;;;3.40;99.90;;;;;;10401269;28;19933;-70
2021/04/23 06:05:41;;;;;;;;;;;3.50;99.90;;;;;;10389906;28;20032;-70
2021/04/23 06:10:44;;;;;;;;;;;3.70;99.90;;;;;;10401074;28;20305;-70
2021/04/23 06:15:46;;;;;;;;;;;3.80;99.90;;;;;;10393189;28;20364;-70
2021/04/23 06:20:47;;;;;;;;;;;4.00;99.90;;;;;;10397203;28;20024;-70
2021/04/23 06:25:49;;;;;;;;;;;3.80;99.90;;;;;;10395778;28;20023;-70
2021/04/23 06:30:51;;;;;;;;;;;4.00;99.90;;;;;;10394583;28;19929;-70
2021/04/23 06:35:52;;;;;;;;;;;3.90;99.90;;;;;;10403359;28;20024;-69
2021/04/23 06:40:54;;;;;;;;;;;4.20;99.90;;;;;;10402788;28;20015;-70
2021/04/23 06:45:56;;;;;;;;;;;4.50;99.90;;;;;;10408414;28;19929;-70
2021/04/23 06:50:59;;;;;;;;;;;4.60;99.90;;;;;;10420337;28;20382;-70
2021/04/23 06:56:02;;;;;;;;;;;4.70;99.90;;;;;;10409553;28;19933;-70
2021/04/23 07:01:04;;;;;;;;;;;4.80;99.90;;;;;;10418939;28;19995;-70
2021/04/23 07:06:05;;;;;;;;;;;4.80;99.90;;;;;;10415638;28;20029;-69
2021/04/23 07:11:08;;;;;;;;;;;5.20;99.90;;;;;;10392243;28;19925;-70
2021/04/23 07:16:10;;;;;;;;;;;5.60;99.90;;;;;;10403963;28;19972;-70
2021/04/23 07:21:16;;;;;;;;;;;5.80;99.90;;;;;;10419166;28;19932;-70
2021/04/23 07:26:18;;;;;;;;;;;6.10;99.90;;;;;;10423420;28;19929;-70
2021/04/23 07:31:19;;;;;;;;;;;6.00;99.90;;;;;;10432172;28;19925;-70
2021/04/23 07:36:21;;;;;;;;;;;6.20;99.90;;;;;;10418848;28;20352;-70
2021/04/23 07:41:22;;;;;;;;;;;6.80;99.90;;;;;;10430662;28;19925;-70
2021/04/23 07:46:23;;;;;;;;;;;7.70;99.90;;;;;;10420192;28;19929;-70
2021/04/23 07:51:25;;;;;;;;;;;8.80;99.90;;;;;;10422777;28;20015;-71
2021/04/23 07:56:26;;;;;;;;;;;9.30;96.40;;;;;;10419855;28;19925;-70
2021/04/23 08:01:27;;;;;;;;;;;9.90;92.70;;;;;;10435511;28;19960;-71
2021/04/23 08:06:28;;;;;;;;;;;10.00;89.40;;;;;;10431351;28;19925;-70
2021/04/23 08:11:30;;;;;;;;;;;10.20;83.30;;;;;;10434926;28;19925;-70
2021/04/23 08:16:31;;;;;;;;;;;10.70;79.70;;;;;;10411189;28;20195;-70
2021/04/23 08:21:32;;;;;;;;;;;11.10;73.80;;;;;;10424575;28;20028;-70
2021/04/23 08:26:35;;;;;;;;;;;11.20;71.70;;;;;;10402077;28;20434;-70
2021/04/23 08:31:40;;;;;;;;;;;11.60;73.50;;;;;;10412359;28;20011;-70
2021/04/23 08:36:42;;;;;;;;;;;11.80;67.50;;;;;;10428882;28;19925;-70
2021/04/23 08:41:43;;;;;;;;;;;11.70;63.20;;;;;;10434431;28;20365;-61
2021/04/23 08:46:45;;;;;;;;;;;11.20;63.10;;;;;;10400600;28;20424;-61
2021/04/23 08:51:46;;;;;;;;;;;10.90;64.40;;;;;;10436713;28;19929;-61
2021/04/23 08:56:48;;;;;;;;;;;11.30;65.00;;;;;;10430935;28;20461;-61
2021/04/23 09:01:49;;;;;;;;;;;11.90;63.60;;;;;;10413053;28;20002;-61
2021/04/23 09:07:01;;;;;;;;;;;12.40;59.80;;;;;;10432306;28;19928;-61
2021/04/23 09:12:14;;;;;;;;;;;12.00;60.20;;;;;;10428318;28;19929;-61
2021/04/23 09:17:17;;;;;;;;;;;12.10;57.60;;;;;;10438569;28;19986;-61
2021/04/23 09:22:18;;;;;;;;;;;12.10;57.70;;;;;;10425382;28;19925;-61
2021/04/23 09:27:21;;;;;;;;;;;12.30;56.80;;;;;;10409442;28;19932;-61
2021/04/23 09:32:27;;;;;;;;;;;12.40;56.50;;;;;;10429296;28;20301;-61
2021/04/23 09:37:30;;;;;;;;;;;12.50;56.00;;;;;;10434729;28;20346;-61
2021/04/23 09:42:41;;;;;;;;;;;12.60;54.00;;;;;;10439983;28;19936;-61
2021/04/23 09:47:42;;;;;;;;;;;12.60;53.80;;;;;;10433542;28;20392;-61
2021/04/23 09:52:47;;;;;;;;;;;12.70;54.90;;;;;;10421996;28;19979;-61
2021/04/23 09:57:53;;;;;;;;;;;12.80;54.80;;;;;;10416424;28;20024;-61
2021/04/23 10:02:56;;;;;;;;;;;12.70;54.20;;;;;;10415758;28;19925;-61
2021/04/23 10:08:00;;;;;;;;;;;12.50;55.00;;;;;;10434727;28;20331;-61
2021/04/23 10:13:06;;;;;;;;;;;13.10;54.30;;;;;;10410771;28;19932;-61
2021/04/23 10:18:09;;;;;;;;;;;13.00;53.40;;;;;;10423641;28;20016;-61
2021/04/23 10:23:12;;;;;;;;;;;13.30;53.60;;;;;;10418714;28;20297;-61
2021/04/23 10:28:17;;;;;;;;;;;13.50;53.30;;;;;;10427180;28;20257;-61
2021/04/23 10:33:19;;;;;;;;;;;13.40;51.00;;;;;;10439584;28;20003;-61
2021/04/23 10:38:22;;;;;;;;;;;12.90;52.50;;;;;;10440999;28;19968;-61
2021/04/23 10:43:24;;;;;;;;;;;12.50;51.60;;;;;;10422776;28;20023;-61
2021/04/23 10:48:30;;;;;;;;;;;12.90;52.40;;;;;;10437712;28;20258;-61
2021/04/23 10:53:44;;;;;;;;;;;12.90;51.60;;;;;;10406642;28;19933;-61
2021/04/23 10:58:49;;;;;;;;;;;12.60;52.40;;;;;;10435364;28;19935;-61
2021/04/23 11:03:58;;;;;;;;;;;12.70;52.00;;;;;;10438328;28;20318;-61
2021/04/23 11:08:59;;;;;;;;;;;12.50;53.60;;;;;;10417566;28;20023;-61
2021/04/23 11:14:22;;;;;;;;;;;12.20;53.90;;;;;;10408936;28;19929;-61
2021/04/23 11:19:23;;;;;;;;;;;12.10;51.00;;;;;;10404889;28;20365;-61
2021/04/23 11:24:27;;;;;;;;;;;12.20;52.70;;;;;;10417413;28;20008;-61
2021/04/23 11:29:30;;;;;;;;;;;12.50;52.50;;;;;;10440810;28;20007;-61
2021/04/23 11:34:34;;;;;;;;;;;12.30;49.80;;;;;;10435426;28;19976;-61
2021/04/23 11:39:44;;;;;;;;;;;12.50;49.90;;;;;;10433492;28;20448;-61
2021/04/23 11:44:57;;;;;;;;;;;12.90;49.60;;;;;;10423692;28;20331;-61
2021/04/23 11:50:00;;;;;;;;;;;13.00;49.80;;;;;;10431594;28;20016;-61
2021/04/23 11:55:06;;;;;;;;;;;13.20;48.30;;;;;;10430403;28;20019;-61
2021/04/23 12:00:18;;;;;;;;;;;13.30;47.10;;;;;;10430179;28;19964;-61
2021/04/23 12:05:30;;;;;;;;;;;13.60;45.50;;;;;;10417145;28;20010;-61
2021/04/23 12:10:32;;;;;;;;;;;14.10;44.90;;;;;;10426789;28;19996;-62
2021/04/23 12:15:35;;;;;;;;;;;13.60;43.00;;;;;;10438097;28;20300;-62
2021/04/23 12:20:41;;;;;;;;;;;13.50;45.30;;;;;;10413665;28;20047;-61
2021/04/23 12:25:49;;;;;;;;;;;13.50;46.00;;;;;;10408141;28;19933;-62
2021/04/23 12:31:16;;;;;;;;;;;13.40;44.20;;;;;;10437974;28;19972;-61
2021/04/23 12:36:20;;;;;;;;;;;13.70;45.70;;;;;;10447151;28;20015;-61
2021/04/23 12:41:23;;;;;;;;;;;13.70;45.40;;;;;;10447766;28;20922;-62
2021/04/23 12:46:26;;;;;;;;;;;13.80;43.00;;;;;;10448874;28;20345;-61
2021/04/23 12:51:28;;;;;;;;;;;13.80;43.50;;;;;;10449153;28;20070;-61
2021/04/23 12:56:29;;;;;;;;;;;13.80;42.70;;;;;;10427796;28;20352;-61
2021/04/23 13:01:31;;;;;;;;;;;14.10;42.50;;;;;;10423804;28;19999;-61
2021/04/23 13:06:33;;;;;;;;;;;14.20;41.70;;;;;;10423546;28;20220;-61
2021/04/23 13:11:35;;;;;;;;;;;14.50;42.50;;;;;;10411976;28;19925;-62
2021/04/23 13:16:56;;;;;;;;;;;14.70;44.10;;;;;;10414191;28;19925;-62
2021/04/23 13:21:58;;;;;;;;;;;14.90;40.90;;;;;;10412686;28;19939;-61
2021/04/23 13:26:59;;;;;;;;;;;14.80;41.90;;;;;;10425523;28;19925;-62
2021/04/23 13:32:01;;;;;;;;;;;14.90;42.00;;;;;;10409159;28;20034;-62
2021/04/23 13:37:02;;;;;;;;;;;14.60;41.60;;;;;;10410564;28;20007;-61
2021/04/23 13:42:03;;;;;;;;;;;14.80;42.70;;;;;;10412392;28;19964;-62
2021/04/23 13:47:10;;;;;;;;;;;15.10;42.20;;;;;;10419178;28;20002;-62
2021/04/23 13:52:17;;;;;;;;;;;15.30;41.40;;;;;;10407362;28;19929;-61
2021/04/23 13:57:19;;;;;;;;;;;15.20;41.60;;;;;;10410047;28;20016;-62
2021/04/23 14:02:22;;;;;;;;;;;15.20;40.30;;;;;;10402422;28;19980;-62
2021/04/23 14:07:28;;;;;;;;;;;15.20;40.00;;;;;;10405650;28;19955;-62
2021/04/23 14:12:31;;;;;;;;;;;15.40;39.60;;;;;;10402628;28;20031;-62
2021/04/23 14:17:33;;;;;;;;;;;15.50;40.20;;;;;;10405773;28;19960;-62
2021/04/23 14:22:34;;;;;;;;;;;15.50;38.80;;;;;;10403961;28;20412;-62
2021/04/23 14:27:35;;;;;;;;;;;15.50;39.50;;;;;;10404099;28;19957;-62
2021/04/23 14:32:38;;;;;;;;;;;15.60;39.70;;;;;;10403898;28;19929;-62
2021/04/23 14:37:40;;;;;;;;;;;15.80;39.80;;;;;;10405562;28;19956;-62
2021/04/23 14:42:41;;;;;;;;;;;16.00;39.60;;;;;;10405435;28;19960;-62
2021/04/23 14:47:42;;;;;;;;;;;15.90;40.20;;;;;;10404323;28;20012;-62
2021/04/23 14:52:43;;;;;;;;;;;15.90;38.80;;;;;;10403619;28;20024;-62
2021/04/23 14:57:45;;;;;;;;;;;15.70;38.80;;;;;;10415546;28;19968;-62
2021/04/23 15:02:46;;;;;;;;;;;16.10;38.60;;;;;;10418116;28;19956;-62
2021/04/23 15:07:47;;;;;;;;;;;16.10;38.90;;;;;;10417584;28;19932;-61
2021/04/23 15:12:49;;;;;;;;;;;16.00;39.40;;;;;;10416316;28;19952;-62
2021/04/23 15:17:50;;;;;;;;;;;16.10;39.40;;;;;;10416590;28;19925;-62
2021/04/23 15:22:51;;;;;;;;;;;16.10;39.80;;;;;;10417529;28;20381;-62
2021/04/23 15:27:53;;;;;;;;;;;16.20;38.50;;;;;;10417090;28;19929;-62
2021/04/23 15:32:55;;;;;;;;;;;16.10;39.00;;;;;;10416285;28;19929;-62
2021/04/23 15:37:56;;;;;;;;;;;16.00;37.60;;;;;;10413069;28;19929;-62
2021/04/23 15:42:57;;;;;;;;;;;15.80;37.40;;;;;;10417285;28;19975;-62
2021/04/23 15:47:59;;;;;;;;;;;16.00;38.10;;;;;;10417338;28;19972;-62
2021/04/23 15:53:01;;;;;;;;;;;15.90;38.30;;;;;;10417147;28;19976;-62
2021/04/23 15:58:02;;;;;;;;;;;15.90;38.90;;;;;;10406885;28;20023;-62
2021/04/23 16:03:05;;;;;;;;;;;15.90;38.80;;;;;;10433263;28;19925;-62
2021/04/23 16:08:06;;;;;;;;;;;16.20;37.60;;;;;;10411871;28;19929;-62
2021/04/23 16:13:08;;;;;;;;;;;16.10;37.80;;;;;;10410606;28;20004;-62
2021/04/23 16:18:09;;;;;;;;;;;16.00;37.00;;;;;;10408889;28;20363;-62
2021/04/23 16:23:11;;;;;;;;;;;15.80;37.50;;;;;;10410483;28;19925;-62
2021/04/23 16:28:13;;;;;;;;;;;15.80;37.20;;;;;;10409635;28;19952;-62
2021/04/23 16:33:14;;;;;;;;;;;15.60;37.80;;;;;;10409683;28;20433;-62
2021/04/23 16:38:15;;;;;;;;;;;15.70;37.60;;;;;;10409482;28;20020;-62
2021/04/23 16:43:16;;;;;;;;;;;15.80;37.80;;;;;;10410083;28;19968;-62
2021/04/23 16:48:18;;;;;;;;;;;15.80;38.20;;;;;;10408394;28;19931;-61
2021/04/23 16:53:20;;;;;;;;;;;15.80;38.40;;;;;;10409721;28;19964;-62
2021/04/23 16:58:21;;;;;;;;;;;15.60;37.30;;;;;;10409535;28;20012;-62
2021/04/23 17:03:23;;;;;;;;;;;15.60;38.70;;;;;;10407864;28;19947;-62
2021/04/23 17:08:24;;;;;;;;;;;15.50;37.50;;;;;;10407322;28;20316;-61
2021/04/23 17:13:26;;;;;;;;;;;15.50;38.80;;;;;;10406938;28;20369;-62
2021/04/23 17:18:27;;;;;;;;;;;15.50;38.20;;;;;;10405638;28;20344;-62
2021/04/23 17:23:28;;;;;;;;;;;15.50;38.40;;;;;;10406183;28;19925;-62
2021/04/23 17:28:30;;;;;;;;;;;15.40;38.70;;;;;;10405616;28;19925;-62
2021/04/23 17:33:31;;;;;;;;;;;15.30;38.80;;;;;;10405935;28;19972;-62
2021/04/23 17:38:32;;;;;;;;;;;15.30;39.20;;;;;;10406350;28;19939;-62
2021/04/23 17:43:34;;;;;;;;;;;15.20;39.80;;;;;;10399000;28;20011;-62
2021/04/23 17:48:36;;;;;;;;;;;15.00;39.70;;;;;;10387235;28;20010;-62
2021/04/23 17:53:38;;;;;;;;;;;14.80;39.90;;;;;;10418630;28;19925;-62
2021/04/23 17:58:39;;;;;;;;;;;14.70;40.50;;;;;;10414849;28;20031;-62
2021/04/23 18:03:40;;;;;;;;;;;14.60;41.20;;;;;;10396512;28;19991;-62
2021/04/23 18:08:52;;;;;;;;;;;14.40;41.40;;;;;;10408223;28;19933;-62
2021/04/23 18:13:54;;;;;;;;;;;14.10;41.20;;;;;;10397464;28;20030;-62
2021/04/23 18:18:56;;;;;;;;;;;13.80;42.10;;;;;;10389509;28;20012;-62
2021/04/23 18:23:57;;;;;;;;;;;13.50;42.40;;;;;;10403189;28;19963;-62
2021/04/23 18:28:59;;;;;;;;;;;13.20;43.20;;;;;;10402738;28;20012;-62
2021/04/23 18:34:05;;;;;;;;;;;13.00;43.90;;;;;;10402474;28;19932;-61
2021/04/23 18:39:13;;;;;;;;;;;12.80;44.30;;;;;;10402089;28;19925;-70
2021/04/23 18:44:17;;;;;;;;;;;12.50;45.60;;;;;;10399679;28;19926;-70
2021/04/23 18:49:19;;;;;;;;;;;12.30;46.40;;;;;;10402039;28;19968;-70
2021/04/23 18:54:20;;;;;;;;;;;12.10;46.40;;;;;;10400401;28;20012;-70
2021/04/23 18:59:21;;;;;;;;;;;11.90;47.30;;;;;;10401657;28;20016;-70
2021/04/23 19:04:23;;;;;;;;;;;11.80;47.10;;;;;;10401911;28;20024;-70
2021/04/23 19:09:24;;;;;;;;;;;11.60;48.60;;;;;;10404126;28;20016;-70
2021/04/23 19:14:25;;;;;;;;;;;11.30;50.00;;;;;;10403683;28;19952;-70
2021/04/23 19:19:28;;;;;;;;;;;11.10;50.30;;;;;;10401784;28;20007;-70
2021/04/23 19:24:29;;;;;;;;;;;11.00;51.10;;;;;;10402647;28;20334;-70
2021/04/23 19:29:32;;;;;;;;;;;10.80;51.40;;;;;;10402601;28;19929;-70
2021/04/23 19:34:33;;;;;;;;;;;10.60;51.70;;;;;;10403344;28;19929;-70
2021/04/23 19:39:34;;;;;;;;;;;10.50;51.90;;;;;;10401393;28;19951;-70
2021/04/23 19:44:36;;;;;;;;;;;10.30;52.00;;;;;;10408892;28;19925;-70
2021/04/23 19:49:37;;;;;;;;;;;10.20;52.80;;;;;;10410539;28;20028;-70
2021/04/23 19:54:38;;;;;;;;;;;10.00;53.20;;;;;;10410184;28;20008;-70
2021/04/23 19:59:40;;;;;;;;;;;9.90;53.50;;;;;;10409986;28;20352;-70
2021/04/23 20:04:42;;;;;;;;;;;9.80;53.60;;;;;;10409050;28;19932;-70
2021/04/23 20:09:43;;;;;;;;;;;9.60;53.90;;;;;;10409270;28;20012;-70
2021/04/23 20:14:45;;;;;;;;;;;9.50;53.50;;;;;;10408309;28;20328;-70
2021/04/23 20:20:03;;;;;;;;;;;9.30;54.30;;;;;;10408766;28;19960;-70
2021/04/23 20:25:05;;;;;;;;;;;9.20;54.90;;;;;;10409334;28;19971;-70
2021/04/23 20:30:08;;;;;;;;;;;9.30;55.10;;;;;;10407953;28;20356;-69
2021/04/23 20:35:09;;;;;;;;;;;9.40;54.50;;;;;;10408604;28;20011;-70
2021/04/23 20:40:12;;;;;;;;;;;9.30;55.10;;;;;;10408727;28;19925;-70
2021/04/23 20:45:14;;;;;;;;;;;9.30;54.30;;;;;;10408656;28;20346;-70
2021/04/23 20:50:15;;;;;;;;;;;9.30;54.80;;;;;;10408593;28;19979;-70
2021/04/23 20:55:16;;;;;;;;;;;9.20;55.40;;;;;;10407039;28;19963;-70
2021/04/23 21:00:18;;;;;;;;;;;9.10;55.90;;;;;;10407843;28;19925;-70
2021/04/23 21:05:20;;;;;;;;;;;8.90;56.30;;;;;;10408034;28;19925;-70
2021/04/23 21:10:21;;;;;;;;;;;8.80;56.50;;;;;;10408381;28;19932;-70
2021/04/23 21:15:23;;;;;;;;;;;8.70;57.00;;;;;;10406084;28;20397;-70
2021/04/23 21:20:25;;;;;;;;;;;8.70;57.60;;;;;;10406217;28;20468;-70
2021/04/23 21:25:27;;;;;;;;;;;8.60;57.90;;;;;;10406967;28;19929;-70
2021/04/23 21:30:28;;;;;;;;;;;8.60;58.40;;;;;;10405806;28;20015;-70
2021/04/23 21:35:31;;;;;;;;;;;8.50;58.70;;;;;;10406995;28;20425;-70
2021/04/23 21:40:34;;;;;;;;;;;8.40;59.30;;;;;;10406251;28;19925;-69
2021/04/23 21:45:35;;;;;;;;;;;8.20;59.90;;;;;;10406109;28;20008;-69
2021/04/23 21:50:37;;;;;;;;;;;8.10;60.90;;;;;;10406141;28;19925;-69
2021/04/23 21:55:38;;;;;;;;;;;8.00;61.90;;;;;;10405726;28;19932;-69
2021/04/23 22:00:39;;;;;;;;;;;8.00;62.40;;;;;;10404330;28;19969;-69
2021/04/23 22:05:41;;;;;;;;;;;7.90;63.70;;;;;;10403959;28;19972;-69
2021/04/23 22:10:42;;;;;;;;;;;7.80;63.60;;;;;;10405044;28;19933;-69
2021/04/23 22:15:43;;;;;;;;;;;7.80;64.40;;;;;;10405247;28;20004;-69
2021/04/23 22:20:45;;;;;;;;;;;7.60;65.40;;;;;;10405271;28;20011;-68
2021/04/23 22:25:46;;;;;;;;;;;7.40;67.60;;;;;;10404632;28;19971;-69
2021/04/23 22:30:48;;;;;;;;;;;7.30;69.30;;;;;;10404108;28;19925;-68
2021/04/23 22:35:49;;;;;;;;;;;7.20;70.80;;;;;;10405293;28;20008;-69
2021/04/23 22:40:50;;;;;;;;;;;7.10;73.70;;;;;;10403591;28;19960;-69
2021/04/23 22:45:52;;;;;;;;;;;7.00;75.10;;;;;;10404062;28;20401;-69
2021/04/23 22:50:53;;;;;;;;;;;7.00;77.10;;;;;;10403739;28;19932;-69
2021/04/23 22:55:54;;;;;;;;;;;6.90;81.10;;;;;;10403829;28;19931;-69
2021/04/23 23:00:56;;;;;;;;;;;6.80;84.30;;;;;;10403726;28;20049;-69
2021/04/23 23:05:57;;;;;;;;;;;6.80;87.90;;;;;;10404033;28;19929;-69
2021/04/23 23:10:59;;;;;;;;;;;6.80;90.30;;;;;;10403433;28;19932;-69
2021/04/23 23:16:00;;;;;;;;;;;6.70;92.00;;;;;;10404361;28;20340;-69
2021/04/23 23:21:02;;;;;;;;;;;6.60;93.10;;;;;;10412246;28;19993;-69
2021/04/23 23:26:04;;;;;;;;;;;6.40;96.20;;;;;;10410507;28;19932;-69
2021/04/23 23:31:05;;;;;;;;;;;6.40;97.20;;;;;;10411067;28;20008;-69
2021/04/23 23:36:06;;;;;;;;;;;6.20;98.40;;;;;;10411273;28;19963;-69
2021/04/23 23:41:08;;;;;;;;;;;6.00;99.90;;;;;;10410593;28;19932;-69
2021/04/23 23:46:09;;;;;;;;;;;5.90;99.90;;;;;;10410048;28;20028;-70
2021/04/23 23:51:10;;;;;;;;;;;5.70;99.90;;;;;;10410264;28;19925;-69
2021/04/23 23:56:11;;;;;;;;;;;5.60;99.90;;;;;;10410597;28;19964;-69
